sensor_id;sensor_type;location;lat;lon;timestamp;P1;durP1;ratioP1;P2;durP2;ratioP2
67191;SDS011;54120;53.504;49.426;2023-12-28T00:02:01;30.05;;;10.48;;
67191;SDS011;54120;53.504;49.426;2023-12-28T00:04:28;32.55;;;11.15;;
67191;SDS011;54120;53.504;49.426;2023-12-28T00:06:55;22.88;;;10.35;;
67191;SDS011;54120;53.504;49.426;2023-12-28T00:09:21;21.75;;;9.32;;
67191;SDS011;54120;53.504;49.426;2023-12-28T00:11:48;23.38;;;9.38;;
67191;SDS011;54120;53.504;49.426;2023-12-28T00:14:14;21.83;;;8.07;;
67191;SDS011;54120;53.504;49.426;2023-12-28T00:16:41;22.15;;;9.25;;
67191;SDS011;54120;53.504;49.426;2023-12-28T00:19:07;21.70;;;9.02;;
67191;SDS011;54120;53.504;49.426;2023-12-28T00:21:35;24.17;;;10.57;;
67191;SDS011;54120;53.504;49.426;2023-12-28T00:24:01;25.83;;;10.95;;
67191;SDS011;54120;53.504;49.426;2023-12-28T00:26:27;22.65;;;9.77;;
67191;SDS011;54120;53.504;49.426;2023-12-28T00:28:54;24.60;;;11.93;;
67191;SDS011;54120;53.504;49.426;2023-12-28T00:31:20;24.08;;;11.20;;
67191;SDS011;54120;53.504;49.426;2023-12-28T00:33:46;35.65;;;11.93;;
67191;SDS011;54120;53.504;49.426;2023-12-28T00:36:12;29.23;;;11.07;;
67191;SDS011;54120;53.504;49.426;2023-12-28T00:38:37;29.33;;;12.63;;
67191;SDS011;54120;53.504;49.426;2023-12-28T00:41:03;35.60;;;12.52;;
67191;SDS011;54120;53.504;49.426;2023-12-28T00:43:29;37.83;;;11.68;;
67191;SDS011;54120;53.504;49.426;2023-12-28T00:45:56;33.13;;;12.98;;
67191;SDS011;54120;53.504;49.426;2023-12-28T00:48:22;35.55;;;19.00;;
67191;SDS011;54120;53.504;49.426;2023-12-28T00:50:48;60.45;;;28.63;;
67191;SDS011;54120;53.504;49.426;2023-12-28T00:53:14;43.85;;;24.30;;
67191;SDS011;54120;53.504;49.426;2023-12-28T00:55:40;52.65;;;28.42;;
67191;SDS011;54120;53.504;49.426;2023-12-28T00:58:06;50.38;;;26.40;;
67191;SDS011;54120;53.504;49.426;2023-12-28T01:00:32;48.60;;;27.05;;
67191;SDS011;54120;53.504;49.426;2023-12-28T01:02:58;50.85;;;25.80;;
67191;SDS011;54120;53.504;49.426;2023-12-28T01:05:24;39.50;;;24.90;;
67191;SDS011;54120;53.504;49.426;2023-12-28T01:07:53;33.60;;;18.27;;
67191;SDS011;54120;53.504;49.426;2023-12-28T01:10:19;33.50;;;22.98;;
67191;SDS011;54120;53.504;49.426;2023-12-28T01:12:46;37.15;;;15.68;;
67191;SDS011;54120;53.504;49.426;2023-12-28T01:15:12;30.42;;;15.98;;
67191;SDS011;54120;53.504;49.426;2023-12-28T01:17:38;22.42;;;13.68;;
67191;SDS011;54120;53.504;49.426;2023-12-28T01:20:04;25.23;;;13.27;;
67191;SDS011;54120;53.504;49.426;2023-12-28T01:22:33;21.25;;;13.30;;
67191;SDS011;54120;53.504;49.426;2023-12-28T01:25:00;24.98;;;17.67;;
67191;SDS011;54120;53.504;49.426;2023-12-28T01:27:26;26.42;;;16.90;;
67191;SDS011;54120;53.504;49.426;2023-12-28T01:29:52;24.35;;;17.02;;
67191;SDS011;54120;53.504;49.426;2023-12-28T01:32:18;24.50;;;16.75;;
67191;SDS011;54120;53.504;49.426;2023-12-28T01:34:44;29.83;;;20.38;;
67191;SDS011;54120;53.504;49.426;2023-12-28T01:37:10;35.95;;;25.05;;
67191;SDS011;54120;53.504;49.426;2023-12-28T01:39:36;32.35;;;23.25;;
67191;SDS011;54120;53.504;49.426;2023-12-28T01:42:03;27.45;;;21.80;;
67191;SDS011;54120;53.504;49.426;2023-12-28T01:44:30;31.33;;;23.00;;
67191;SDS011;54120;53.504;49.426;2023-12-28T01:49:08;33.28;;;22.83;;
67191;SDS011;54120;53.504;49.426;2023-12-28T01:51:34;32.80;;;22.90;;
67191;SDS011;54120;53.504;49.426;2023-12-28T01:54:00;29.33;;;20.27;;
67191;SDS011;54120;53.504;49.426;2023-12-28T01:56:27;29.05;;;20.42;;
67191;SDS011;54120;53.504;49.426;2023-12-28T01:58:53;21.48;;;12.95;;
67191;SDS011;54120;53.504;49.426;2023-12-28T02:01:19;21.50;;;11.60;;
67191;SDS011;54120;53.504;49.426;2023-12-28T02:03:46;17.30;;;8.38;;
67191;SDS011;54120;53.504;49.426;2023-12-28T02:06:12;19.00;;;8.88;;
67191;SDS011;54120;53.504;49.426;2023-12-28T02:08:42;14.60;;;9.27;;
67191;SDS011;54120;53.504;49.426;2023-12-28T02:11:08;15.23;;;9.60;;
67191;SDS011;54120;53.504;49.426;2023-12-28T02:13:34;13.02;;;9.70;;
67191;SDS011;54120;53.504;49.426;2023-12-28T02:16:06;14.98;;;10.05;;
67191;SDS011;54120;53.504;49.426;2023-12-28T02:18:43;13.32;;;9.93;;
67191;SDS011;54120;53.504;49.426;2023-12-28T02:21:13;13.05;;;9.57;;
67191;SDS011;54120;53.504;49.426;2023-12-28T02:23:45;14.93;;;11.10;;
67191;SDS011;54120;53.504;49.426;2023-12-28T02:26:12;14.57;;;11.45;;
67191;SDS011;54120;53.504;49.426;2023-12-28T02:28:38;15.98;;;11.95;;
67191;SDS011;54120;53.504;49.426;2023-12-28T02:31:04;15.45;;;11.57;;
67191;SDS011;54120;53.504;49.426;2023-12-28T02:33:38;13.20;;;10.40;;
67191;SDS011;54120;53.504;49.426;2023-12-28T02:36:16;15.10;;;11.63;;
67191;SDS011;54120;53.504;49.426;2023-12-28T02:38:48;16.15;;;11.63;;
67191;SDS011;54120;53.504;49.426;2023-12-28T02:41:15;14.95;;;11.82;;
67191;SDS011;54120;53.504;49.426;2023-12-28T02:43:42;13.85;;;11.43;;
67191;SDS011;54120;53.504;49.426;2023-12-28T02:46:08;15.68;;;11.95;;
67191;SDS011;54120;53.504;49.426;2023-12-28T02:48:35;15.95;;;10.63;;
67191;SDS011;54120;53.504;49.426;2023-12-28T02:51:01;14.90;;;10.48;;
67191;SDS011;54120;53.504;49.426;2023-12-28T02:53:27;14.45;;;10.27;;
67191;SDS011;54120;53.504;49.426;2023-12-28T02:55:53;14.88;;;11.00;;
67191;SDS011;54120;53.504;49.426;2023-12-28T02:58:19;13.38;;;10.65;;
67191;SDS011;54120;53.504;49.426;2023-12-28T03:00:45;14.50;;;11.57;;
67191;SDS011;54120;53.504;49.426;2023-12-28T03:03:11;13.93;;;11.90;;
67191;SDS011;54120;53.504;49.426;2023-12-28T03:05:37;16.38;;;11.80;;
67191;SDS011;54120;53.504;49.426;2023-12-28T03:08:03;18.88;;;12.88;;
67191;SDS011;54120;53.504;49.426;2023-12-28T03:10:29;18.35;;;14.00;;
67191;SDS011;54120;53.504;49.426;2023-12-28T03:12:55;18.52;;;12.93;;
67191;SDS011;54120;53.504;49.426;2023-12-28T03:15:21;18.50;;;12.95;;
67191;SDS011;54120;53.504;49.426;2023-12-28T03:17:47;16.67;;;11.90;;
67191;SDS011;54120;53.504;49.426;2023-12-28T03:20:13;17.45;;;11.35;;
67191;SDS011;54120;53.504;49.426;2023-12-28T03:22:41;18.40;;;12.82;;
67191;SDS011;54120;53.504;49.426;2023-12-28T03:25:07;17.35;;;12.45;;
67191;SDS011;54120;53.504;49.426;2023-12-28T03:27:33;16.58;;;12.05;;
67191;SDS011;54120;53.504;49.426;2023-12-28T03:29:59;18.23;;;12.00;;
67191;SDS011;54120;53.504;49.426;2023-12-28T03:32:25;17.95;;;12.65;;
67191;SDS011;54120;53.504;49.426;2023-12-28T03:34:51;19.00;;;13.13;;
67191;SDS011;54120;53.504;49.426;2023-12-28T03:37:17;17.33;;;12.45;;
67191;SDS011;54120;53.504;49.426;2023-12-28T03:39:43;19.00;;;12.73;;
67191;SDS011;54120;53.504;49.426;2023-12-28T03:42:10;17.77;;;13.32;;
67191;SDS011;54120;53.504;49.426;2023-12-28T03:44:38;21.80;;;13.70;;
67191;SDS011;54120;53.504;49.426;2023-12-28T03:47:04;18.30;;;13.40;;
67191;SDS011;54120;53.504;49.426;2023-12-28T03:49:30;17.77;;;12.63;;
67191;SDS011;54120;53.504;49.426;2023-12-28T03:51:56;19.55;;;13.13;;
67191;SDS011;54120;53.504;49.426;2023-12-28T03:54:22;16.85;;;12.50;;
67191;SDS011;54120;53.504;49.426;2023-12-28T03:56:48;18.13;;;12.35;;
67191;SDS011;54120;53.504;49.426;2023-12-28T03:59:14;20.13;;;12.50;;
67191;SDS011;54120;53.504;49.426;2023-12-28T04:01:43;18.38;;;12.45;;
67191;SDS011;54120;53.504;49.426;2023-12-28T04:04:10;18.70;;;12.18;;
67191;SDS011;54120;53.504;49.426;2023-12-28T04:06:36;17.58;;;11.45;;
67191;SDS011;54120;53.504;49.426;2023-12-28T04:09:03;17.45;;;11.70;;
67191;SDS011;54120;53.504;49.426;2023-12-28T04:11:29;18.63;;;11.43;;
67191;SDS011;54120;53.504;49.426;2023-12-28T04:13:55;16.55;;;11.73;;
67191;SDS011;54120;53.504;49.426;2023-12-28T04:16:21;17.77;;;11.45;;
67191;SDS011;54120;53.504;49.426;2023-12-28T04:18:46;18.63;;;12.32;;
67191;SDS011;54120;53.504;49.426;2023-12-28T04:21:14;16.13;;;12.25;;
67191;SDS011;54120;53.504;49.426;2023-12-28T04:23:40;16.20;;;11.75;;
67191;SDS011;54120;53.504;49.426;2023-12-28T04:26:07;17.23;;;11.35;;
67191;SDS011;54120;53.504;49.426;2023-12-28T04:28:33;14.75;;;10.40;;
67191;SDS011;54120;53.504;49.426;2023-12-28T04:31:05;15.23;;;11.40;;
67191;SDS011;54120;53.504;49.426;2023-12-28T04:33:32;14.63;;;10.82;;
67191;SDS011;54120;53.504;49.426;2023-12-28T04:36:01;17.73;;;11.57;;
67191;SDS011;54120;53.504;49.426;2023-12-28T04:38:29;16.80;;;11.52;;
67191;SDS011;54120;53.504;49.426;2023-12-28T04:40:57;16.40;;;11.15;;
67191;SDS011;54120;53.504;49.426;2023-12-28T04:43:26;17.05;;;10.77;;
67191;SDS011;54120;53.504;49.426;2023-12-28T04:45:52;16.42;;;10.95;;
67191;SDS011;54120;53.504;49.426;2023-12-28T04:48:18;17.95;;;10.88;;
67191;SDS011;54120;53.504;49.426;2023-12-28T04:50:49;19.92;;;12.20;;
67191;SDS011;54120;53.504;49.426;2023-12-28T04:53:15;19.10;;;12.63;;
67191;SDS011;54120;53.504;49.426;2023-12-28T04:55:41;17.20;;;12.30;;
67191;SDS011;54120;53.504;49.426;2023-12-28T04:58:08;18.65;;;12.18;;
67191;SDS011;54120;53.504;49.426;2023-12-28T05:00:35;17.65;;;12.65;;
67191;SDS011;54120;53.504;49.426;2023-12-28T05:03:01;22.00;;;13.30;;
67191;SDS011;54120;53.504;49.426;2023-12-28T05:05:30;17.52;;;13.50;;
67191;SDS011;54120;53.504;49.426;2023-12-28T05:07:56;19.13;;;13.45;;
67191;SDS011;54120;53.504;49.426;2023-12-28T05:10:22;18.15;;;13.10;;
67191;SDS011;54120;53.504;49.426;2023-12-28T05:12:48;21.10;;;14.80;;
67191;SDS011;54120;53.504;49.426;2023-12-28T05:15:14;24.17;;;15.93;;
67191;SDS011;54120;53.504;49.426;2023-12-28T05:17:40;20.75;;;14.35;;
67191;SDS011;54120;53.504;49.426;2023-12-28T05:20:07;19.20;;;12.75;;
67191;SDS011;54120;53.504;49.426;2023-12-28T05:22:34;21.30;;;13.35;;
67191;SDS011;54120;53.504;49.426;2023-12-28T05:25:00;19.98;;;13.40;;
67191;SDS011;54120;53.504;49.426;2023-12-28T05:27:26;21.20;;;15.05;;
67191;SDS011;54120;53.504;49.426;2023-12-28T05:29:52;21.92;;;15.10;;
67191;SDS011;54120;53.504;49.426;2023-12-28T05:32:18;23.42;;;15.23;;
67191;SDS011;54120;53.504;49.426;2023-12-28T05:34:44;21.63;;;15.18;;
67191;SDS011;54120;53.504;49.426;2023-12-28T05:37:10;23.58;;;15.68;;
67191;SDS011;54120;53.504;49.426;2023-12-28T05:39:36;25.08;;;16.98;;
67191;SDS011;54120;53.504;49.426;2023-12-28T05:42:03;21.65;;;14.65;;
67191;SDS011;54120;53.504;49.426;2023-12-28T05:44:30;22.35;;;16.00;;
67191;SDS011;54120;53.504;49.426;2023-12-28T05:47:02;24.77;;;17.02;;
67191;SDS011;54120;53.504;49.426;2023-12-28T05:49:29;25.80;;;17.73;;
67191;SDS011;54120;53.504;49.426;2023-12-28T05:51:56;28.02;;;17.60;;
67191;SDS011;54120;53.504;49.426;2023-12-28T05:54:23;28.45;;;18.23;;
67191;SDS011;54120;53.504;49.426;2023-12-28T05:56:49;29.23;;;19.10;;
67191;SDS011;54120;53.504;49.426;2023-12-28T05:59:15;27.65;;;18.38;;
67191;SDS011;54120;53.504;49.426;2023-12-28T06:01:42;29.27;;;18.05;;
67191;SDS011;54120;53.504;49.426;2023-12-28T06:04:09;28.42;;;18.33;;
67191;SDS011;54120;53.504;49.426;2023-12-28T06:06:35;25.08;;;16.95;;
67191;SDS011;54120;53.504;49.426;2023-12-28T06:09:02;23.90;;;17.50;;
67191;SDS011;54120;53.504;49.426;2023-12-28T06:11:29;28.08;;;18.60;;
67191;SDS011;54120;53.504;49.426;2023-12-28T06:13:55;26.05;;;17.73;;
67191;SDS011;54120;53.504;49.426;2023-12-28T06:16:22;25.70;;;18.02;;
67191;SDS011;54120;53.504;49.426;2023-12-28T06:18:48;29.15;;;17.77;;
67191;SDS011;54120;53.504;49.426;2023-12-28T06:21:14;26.45;;;17.75;;
67191;SDS011;54120;53.504;49.426;2023-12-28T06:23:41;26.00;;;16.90;;
67191;SDS011;54120;53.504;49.426;2023-12-28T06:26:07;27.40;;;18.15;;
67191;SDS011;54120;53.504;49.426;2023-12-28T06:28:33;23.55;;;16.13;;
67191;SDS011;54120;53.504;49.426;2023-12-28T06:31:00;25.73;;;16.67;;
67191;SDS011;54120;53.504;49.426;2023-12-28T06:33:27;22.00;;;15.70;;
67191;SDS011;54120;53.504;49.426;2023-12-28T06:35:55;23.15;;;15.95;;
67191;SDS011;54120;53.504;49.426;2023-12-28T06:38:24;24.25;;;15.43;;
67191;SDS011;54120;53.504;49.426;2023-12-28T06:40:51;26.75;;;16.02;;
67191;SDS011;54120;53.504;49.426;2023-12-28T06:43:17;20.25;;;14.48;;
67191;SDS011;54120;53.504;49.426;2023-12-28T06:45:43;22.88;;;14.77;;
67191;SDS011;54120;53.504;49.426;2023-12-28T06:48:10;22.75;;;15.48;;
67191;SDS011;54120;53.504;49.426;2023-12-28T06:50:36;22.85;;;14.48;;
67191;SDS011;54120;53.504;49.426;2023-12-28T06:53:03;20.92;;;14.75;;
67191;SDS011;54120;53.504;49.426;2023-12-28T06:55:29;21.80;;;14.57;;
67191;SDS011;54120;53.504;49.426;2023-12-28T06:57:56;23.65;;;15.88;;
67191;SDS011;54120;53.504;49.426;2023-12-28T07:00:23;23.73;;;15.02;;
67191;SDS011;54120;53.504;49.426;2023-12-28T07:02:50;22.88;;;14.07;;
67191;SDS011;54120;53.504;49.426;2023-12-28T07:05:19;23.17;;;14.70;;
67191;SDS011;54120;53.504;49.426;2023-12-28T07:07:46;27.23;;;15.85;;
67191;SDS011;54120;53.504;49.426;2023-12-28T07:10:12;21.75;;;13.65;;
67191;SDS011;54120;53.504;49.426;2023-12-28T07:12:38;21.00;;;13.52;;
67191;SDS011;54120;53.504;49.426;2023-12-28T07:15:05;20.88;;;14.68;;
67191;SDS011;54120;53.504;49.426;2023-12-28T07:17:31;20.20;;;13.57;;
67191;SDS011;54120;53.504;49.426;2023-12-28T07:19:57;21.50;;;14.00;;
67191;SDS011;54120;53.504;49.426;2023-12-28T07:22:24;21.30;;;14.18;;
67191;SDS011;54120;53.504;49.426;2023-12-28T07:24:51;23.17;;;14.00;;
67191;SDS011;54120;53.504;49.426;2023-12-28T07:27:17;20.48;;;13.02;;
67191;SDS011;54120;53.504;49.426;2023-12-28T07:29:44;17.85;;;12.43;;
67191;SDS011;54120;53.504;49.426;2023-12-28T07:32:10;20.20;;;12.45;;
67191;SDS011;54120;53.504;49.426;2023-12-28T07:34:37;18.73;;;12.70;;
67191;SDS011;54120;53.504;49.426;2023-12-28T07:37:03;20.23;;;13.95;;
67191;SDS011;54120;53.504;49.426;2023-12-28T07:39:30;20.77;;;13.05;;
67191;SDS011;54120;53.504;49.426;2023-12-28T07:41:57;17.70;;;12.40;;
67191;SDS011;54120;53.504;49.426;2023-12-28T07:44:23;16.23;;;11.80;;
67191;SDS011;54120;53.504;49.426;2023-12-28T07:46:50;16.92;;;11.52;;
67191;SDS011;54120;53.504;49.426;2023-12-28T07:49:17;17.10;;;11.23;;
67191;SDS011;54120;53.504;49.426;2023-12-28T07:51:43;15.40;;;11.45;;
67191;SDS011;54120;53.504;49.426;2023-12-28T07:54:09;16.98;;;11.85;;
67191;SDS011;54120;53.504;49.426;2023-12-28T07:56:36;16.33;;;11.45;;
67191;SDS011;54120;53.504;49.426;2023-12-28T07:59:02;16.30;;;11.93;;
67191;SDS011;54120;53.504;49.426;2023-12-28T08:01:30;16.00;;;11.80;;
67191;SDS011;54120;53.504;49.426;2023-12-28T08:03:58;17.60;;;11.73;;
67191;SDS011;54120;53.504;49.426;2023-12-28T08:06:25;16.92;;;11.80;;
67191;SDS011;54120;53.504;49.426;2023-12-28T08:08:51;15.02;;;10.95;;
67191;SDS011;54120;53.504;49.426;2023-12-28T08:11:19;16.38;;;11.65;;
67191;SDS011;54120;53.504;49.426;2023-12-28T08:13:45;16.45;;;11.13;;
67191;SDS011;54120;53.504;49.426;2023-12-28T08:16:13;14.75;;;10.95;;
67191;SDS011;54120;53.504;49.426;2023-12-28T08:18:39;16.02;;;11.07;;
67191;SDS011;54120;53.504;49.426;2023-12-28T08:21:06;16.38;;;11.43;;
67191;SDS011;54120;53.504;49.426;2023-12-28T08:23:32;16.73;;;11.60;;
67191;SDS011;54120;53.504;49.426;2023-12-28T08:25:58;17.42;;;11.23;;
67191;SDS011;54120;53.504;49.426;2023-12-28T08:28:24;18.27;;;10.68;;
67191;SDS011;54120;53.504;49.426;2023-12-28T08:30:51;14.32;;;10.48;;
67191;SDS011;54120;53.504;49.426;2023-12-28T08:33:17;15.73;;;11.48;;
67191;SDS011;54120;53.504;49.426;2023-12-28T08:35:43;15.65;;;11.25;;
67191;SDS011;54120;53.504;49.426;2023-12-28T08:38:10;16.60;;;11.55;;
67191;SDS011;54120;53.504;49.426;2023-12-28T08:40:37;14.60;;;10.90;;
67191;SDS011;54120;53.504;49.426;2023-12-28T08:43:04;15.55;;;11.00;;
67191;SDS011;54120;53.504;49.426;2023-12-28T08:45:30;17.85;;;12.27;;
67191;SDS011;54120;53.504;49.426;2023-12-28T08:47:56;17.80;;;12.00;;
67191;SDS011;54120;53.504;49.426;2023-12-28T08:50:23;16.10;;;11.07;;
67191;SDS011;54120;53.504;49.426;2023-12-28T08:52:50;18.05;;;11.80;;
67191;SDS011;54120;53.504;49.426;2023-12-28T08:55:16;17.73;;;11.88;;
67191;SDS011;54120;53.504;49.426;2023-12-28T08:57:42;18.60;;;11.68;;
67191;SDS011;54120;53.504;49.426;2023-12-28T09:00:12;15.02;;;10.82;;
67191;SDS011;54120;53.504;49.426;2023-12-28T09:02:40;16.05;;;11.43;;
67191;SDS011;54120;53.504;49.426;2023-12-28T09:05:07;16.52;;;11.18;;
67191;SDS011;54120;53.504;49.426;2023-12-28T09:07:36;14.32;;;10.85;;
67191;SDS011;54120;53.504;49.426;2023-12-28T09:10:11;16.85;;;11.77;;
67191;SDS011;54120;53.504;49.426;2023-12-28T09:12:39;17.50;;;11.80;;
67191;SDS011;54120;53.504;49.426;2023-12-28T09:15:06;16.60;;;11.35;;
67191;SDS011;54120;53.504;49.426;2023-12-28T09:17:33;16.85;;;12.05;;
67191;SDS011;54120;53.504;49.426;2023-12-28T09:20:00;16.55;;;12.13;;
67191;SDS011;54120;53.504;49.426;2023-12-28T09:22:32;15.32;;;10.88;;
67191;SDS011;54120;53.504;49.426;2023-12-28T09:24:59;20.33;;;12.88;;
67191;SDS011;54120;53.504;49.426;2023-12-28T09:27:25;16.80;;;11.35;;
67191;SDS011;54120;53.504;49.426;2023-12-28T09:29:51;16.67;;;11.27;;
67191;SDS011;54120;53.504;49.426;2023-12-28T09:32:17;19.30;;;12.23;;
67191;SDS011;54120;53.504;49.426;2023-12-28T09:34:43;18.25;;;11.80;;
67191;SDS011;54120;53.504;49.426;2023-12-28T09:37:09;18.10;;;11.80;;
67191;SDS011;54120;53.504;49.426;2023-12-28T09:39:34;16.05;;;10.93;;
67191;SDS011;54120;53.504;49.426;2023-12-28T09:42:09;14.18;;;9.88;;
67191;SDS011;54120;53.504;49.426;2023-12-28T09:44:42;13.68;;;10.38;;
67191;SDS011;54120;53.504;49.426;2023-12-28T09:47:10;14.60;;;10.63;;
67191;SDS011;54120;53.504;49.426;2023-12-28T09:49:38;15.85;;;10.88;;
67191;SDS011;54120;53.504;49.426;2023-12-28T09:52:06;15.10;;;10.80;;
67191;SDS011;54120;53.504;49.426;2023-12-28T09:54:32;15.27;;;10.20;;
67191;SDS011;54120;53.504;49.426;2023-12-28T09:56:58;14.43;;;10.70;;
67191;SDS011;54120;53.504;49.426;2023-12-28T09:59:24;14.25;;;10.57;;
67191;SDS011;54120;53.504;49.426;2023-12-28T10:01:52;20.88;;;14.85;;
67191;SDS011;54120;53.504;49.426;2023-12-28T10:04:20;13.85;;;10.18;;
67191;SDS011;54120;53.504;49.426;2023-12-28T10:06:47;14.13;;;10.30;;
67191;SDS011;54120;53.504;49.426;2023-12-28T10:09:13;12.88;;;9.75;;
67191;SDS011;54120;53.504;49.426;2023-12-28T10:11:39;20.38;;;11.13;;
67191;SDS011;54120;53.504;49.426;2023-12-28T10:14:06;14.45;;;10.07;;
67191;SDS011;54120;53.504;49.426;2023-12-28T10:16:32;14.52;;;10.18;;
67191;SDS011;54120;53.504;49.426;2023-12-28T10:18:58;14.55;;;10.15;;
67191;SDS011;54120;53.504;49.426;2023-12-28T10:21:25;16.85;;;10.27;;
67191;SDS011;54120;53.504;49.426;2023-12-28T10:23:51;12.90;;;9.65;;
67191;SDS011;54120;53.504;49.426;2023-12-28T10:26:18;14.20;;;8.93;;
67191;SDS011;54120;53.504;49.426;2023-12-28T10:28:44;11.82;;;9.55;;
67191;SDS011;54120;53.504;49.426;2023-12-28T10:31:10;16.02;;;10.93;;
67191;SDS011;54120;53.504;49.426;2023-12-28T10:33:37;14.52;;;10.25;;
67191;SDS011;54120;53.504;49.426;2023-12-28T10:36:05;13.20;;;10.10;;
67191;SDS011;54120;53.504;49.426;2023-12-28T10:38:36;13.68;;;10.38;;
67191;SDS011;54120;53.504;49.426;2023-12-28T10:41:03;14.93;;;10.15;;
67191;SDS011;54120;53.504;49.426;2023-12-28T10:43:36;19.45;;;9.85;;
67191;SDS011;54120;53.504;49.426;2023-12-28T10:46:16;14.30;;;10.30;;
67191;SDS011;54120;53.504;49.426;2023-12-28T10:49:17;15.73;;;9.52;;
67191;SDS011;54120;53.504;49.426;2023-12-28T10:51:42;11.85;;;8.02;;
67191;SDS011;54120;53.504;49.426;2023-12-28T10:56:49;13.18;;;9.60;;
67191;SDS011;54120;53.504;49.426;2023-12-28T11:02:09;14.00;;;9.80;;
67191;SDS011;54120;53.504;49.426;2023-12-28T11:07:17;13.25;;;10.02;;
67191;SDS011;54120;53.504;49.426;2023-12-28T11:09:44;13.82;;;10.00;;
67191;SDS011;54120;53.504;49.426;2023-12-28T11:12:11;15.45;;;10.38;;
67191;SDS011;54120;53.504;49.426;2023-12-28T11:14:40;15.60;;;10.95;;
67191;SDS011;54120;53.504;49.426;2023-12-28T11:17:06;15.88;;;11.07;;
67191;SDS011;54120;53.504;49.426;2023-12-28T11:19:34;13.70;;;10.00;;
67191;SDS011;54120;53.504;49.426;2023-12-28T11:22:03;14.48;;;9.48;;
67191;SDS011;54120;53.504;49.426;2023-12-28T11:24:30;13.27;;;9.95;;
67191;SDS011;54120;53.504;49.426;2023-12-28T11:26:57;13.48;;;9.75;;
67191;SDS011;54120;53.504;49.426;2023-12-28T11:29:24;15.73;;;9.88;;
67191;SDS011;54120;53.504;49.426;2023-12-28T11:31:51;13.70;;;10.30;;
67191;SDS011;54120;53.504;49.426;2023-12-28T11:34:17;13.57;;;9.77;;
67191;SDS011;54120;53.504;49.426;2023-12-28T11:36:51;14.15;;;10.23;;
67191;SDS011;54120;53.504;49.426;2023-12-28T11:39:29;15.40;;;9.73;;
67191;SDS011;54120;53.504;49.426;2023-12-28T11:41:59;11.57;;;9.45;;
67191;SDS011;54120;53.504;49.426;2023-12-28T11:44:29;15.63;;;10.23;;
67191;SDS011;54120;53.504;49.426;2023-12-28T11:46:58;13.57;;;9.68;;
67191;SDS011;54120;53.504;49.426;2023-12-28T11:49:25;12.38;;;9.35;;
67191;SDS011;54120;53.504;49.426;2023-12-28T11:51:54;12.05;;;8.93;;
67191;SDS011;54120;53.504;49.426;2023-12-28T11:54:23;10.35;;;8.10;;
67191;SDS011;54120;53.504;49.426;2023-12-28T11:56:52;12.65;;;8.27;;
67191;SDS011;54120;53.504;49.426;2023-12-28T11:59:19;10.88;;;8.75;;
67191;SDS011;54120;53.504;49.426;2023-12-28T12:01:50;11.75;;;8.68;;
67191;SDS011;54120;53.504;49.426;2023-12-28T12:04:18;13.90;;;9.27;;
67191;SDS011;54120;53.504;49.426;2023-12-28T12:06:47;12.60;;;9.02;;
67191;SDS011;54120;53.504;49.426;2023-12-28T12:09:13;13.23;;;9.40;;
67191;SDS011;54120;53.504;49.426;2023-12-28T12:11:40;11.57;;;9.07;;
67191;SDS011;54120;53.504;49.426;2023-12-28T12:14:09;10.77;;;8.57;;
67191;SDS011;54120;53.504;49.426;2023-12-28T12:16:36;13.35;;;9.18;;
67191;SDS011;54120;53.504;49.426;2023-12-28T12:19:04;13.18;;;9.55;;
67191;SDS011;54120;53.504;49.426;2023-12-28T12:23:44;13.02;;;9.50;;
67191;SDS011;54120;53.504;49.426;2023-12-28T12:26:13;12.85;;;10.05;;
67191;SDS011;54120;53.504;49.426;2023-12-28T12:28:44;13.52;;;9.73;;
67191;SDS011;54120;53.504;49.426;2023-12-28T12:31:11;12.73;;;9.18;;
67191;SDS011;54120;53.504;49.426;2023-12-28T12:33:37;14.63;;;9.73;;
67191;SDS011;54120;53.504;49.426;2023-12-28T12:36:06;11.80;;;9.02;;
67191;SDS011;54120;53.504;49.426;2023-12-28T12:38:34;15.18;;;9.30;;
67191;SDS011;54120;53.504;49.426;2023-12-28T12:43:11;16.92;;;11.50;;
67191;SDS011;54120;53.504;49.426;2023-12-28T12:45:39;13.07;;;9.98;;
67191;SDS011;54120;53.504;49.426;2023-12-28T12:48:05;14.55;;;9.88;;
67191;SDS011;54120;53.504;49.426;2023-12-28T12:50:33;14.07;;;10.38;;
67191;SDS011;54120;53.504;49.426;2023-12-28T12:53:00;12.05;;;9.70;;
67191;SDS011;54120;53.504;49.426;2023-12-28T12:55:27;14.02;;;10.35;;
67191;SDS011;54120;53.504;49.426;2023-12-28T12:57:53;11.98;;;9.00;;
67191;SDS011;54120;53.504;49.426;2023-12-28T13:00:22;11.65;;;8.32;;
67191;SDS011;54120;53.504;49.426;2023-12-28T13:02:49;11.00;;;8.57;;
67191;SDS011;54120;53.504;49.426;2023-12-28T13:05:17;14.43;;;9.20;;
67191;SDS011;54120;53.504;49.426;2023-12-28T13:07:44;12.00;;;8.98;;
67191;SDS011;54120;53.504;49.426;2023-12-28T13:10:10;14.38;;;9.57;;
67191;SDS011;54120;53.504;49.426;2023-12-28T13:12:36;12.75;;;9.25;;
67191;SDS011;54120;53.504;49.426;2023-12-28T13:15:06;10.07;;;7.40;;
67191;SDS011;54120;53.504;49.426;2023-12-28T13:17:38;10.68;;;7.88;;
67191;SDS011;54120;53.504;49.426;2023-12-28T13:20:05;10.55;;;8.40;;
67191;SDS011;54120;53.504;49.426;2023-12-28T13:22:32;11.73;;;8.23;;
67191;SDS011;54120;53.504;49.426;2023-12-28T13:24:59;10.77;;;7.47;;
67191;SDS011;54120;53.504;49.426;2023-12-28T13:27:27;7.63;;;6.30;;
67191;SDS011;54120;53.504;49.426;2023-12-28T13:29:54;8.18;;;6.22;;
67191;SDS011;54120;53.504;49.426;2023-12-28T13:32:21;9.88;;;6.75;;
67191;SDS011;54120;53.504;49.426;2023-12-28T13:34:49;9.32;;;6.72;;
67191;SDS011;54120;53.504;49.426;2023-12-28T13:37:19;9.20;;;6.70;;
67191;SDS011;54120;53.504;49.426;2023-12-28T13:39:45;10.35;;;6.82;;
67191;SDS011;54120;53.504;49.426;2023-12-28T13:42:13;9.80;;;7.80;;
67191;SDS011;54120;53.504;49.426;2023-12-28T13:44:40;12.40;;;7.88;;
67191;SDS011;54120;53.504;49.426;2023-12-28T13:47:09;10.07;;;7.50;;
67191;SDS011;54120;53.504;49.426;2023-12-28T13:49:36;10.90;;;7.80;;
67191;SDS011;54120;53.504;49.426;2023-12-28T13:52:02;10.23;;;7.72;;
67191;SDS011;54120;53.504;49.426;2023-12-28T13:54:28;7.10;;;6.05;;
67191;SDS011;54120;53.504;49.426;2023-12-28T13:56:55;9.57;;;7.15;;
67191;SDS011;54120;53.504;49.426;2023-12-28T13:59:24;11.00;;;7.70;;
67191;SDS011;54120;53.504;49.426;2023-12-28T14:01:50;9.98;;;7.25;;
67191;SDS011;54120;53.504;49.426;2023-12-28T14:04:17;8.70;;;6.57;;
67191;SDS011;54120;53.504;49.426;2023-12-28T14:06:43;11.73;;;7.10;;
67191;SDS011;54120;53.504;49.426;2023-12-28T14:09:10;10.88;;;7.45;;
67191;SDS011;54120;53.504;49.426;2023-12-28T14:11:38;9.38;;;7.10;;
67191;SDS011;54120;53.504;49.426;2023-12-28T14:14:04;8.32;;;6.35;;
67191;SDS011;54120;53.504;49.426;2023-12-28T14:16:31;8.65;;;6.50;;
67191;SDS011;54120;53.504;49.426;2023-12-28T14:18:57;7.60;;;6.32;;
67191;SDS011;54120;53.504;49.426;2023-12-28T14:21:24;9.07;;;6.70;;
67191;SDS011;54120;53.504;49.426;2023-12-28T14:23:51;7.70;;;6.90;;
67191;SDS011;54120;53.504;49.426;2023-12-28T14:26:17;8.27;;;6.32;;
67191;SDS011;54120;53.504;49.426;2023-12-28T14:28:45;8.48;;;6.47;;